Time;durP1;ratioP1;P1;durP2;ratioP2;P2;SDS_P1;SDS_P2;PMS_P1;PMS_P2;Temp;Humidity;BMP_temperature;BMP_pressure;BME280_temperature;BME280_humidity;BME280_pressure;Samples;Min_cycle;Max_cycle;Signal;HPM_P1;HPM_P2
2022/12/07 00:01:30;;;;;;;11.82;6.28;;;;;;;5.30;100.00;101698.34;4982456;28;20077;-45
2022/12/07 00:04:04;;;;;;;9.38;5.10;;;;;;;5.30;100.00;101701.06;5002224;28;20050;-46
2022/12/07 00:06:40;;;;;;;10.10;5.20;;;;;;;5.29;100.00;101700.22;5015808;28;20092;-49
2022/12/07 00:09:12;;;;;;;8.83;5.20;;;;;;;5.27;100.00;101691.50;5014351;28;20489;-49
2022/12/07 00:11:40;;;;;;;9.55;5.10;;;;;;;5.26;100.00;101687.13;4987887;28;20308;-47
2022/12/07 00:14:12;;;;;;;8.88;5.00;;;;;;;5.26;100.00;101689.81;4986137;28;20050;-48
2022/12/07 00:16:40;;;;;;;11.98;5.22;;;;;;;5.26;100.00;101686.28;5003487;28;20042;-46
2022/12/07 00:19:09;;;;;;;9.50;5.10;;;;;;;5.26;100.00;101678.19;5015283;28;20037;-46
2022/12/07 00:21:36;;;;;;;11.27;4.95;;;;;;;5.26;100.00;101678.19;4978272;28;20038;-46
2022/12/07 00:24:06;;;;;;;10.65;5.45;;;;;;;5.24;100.00;101683.81;4999833;28;20050;-44
2022/12/07 00:26:38;;;;;;;10.38;5.25;;;;;;;5.22;100.00;101683.22;5013165;28;20112;-48
2022/12/07 00:29:17;;;;;;;9.40;5.20;;;;;;;5.22;100.00;101683.22;4968523;28;20042;-46
2022/12/07 00:31:45;;;;;;;8.60;5.20;;;;;;;5.20;100.00;101679.06;5013561;28;20041;-50
2022/12/07 00:34:18;;;;;;;9.32;5.40;;;;;;;5.18;100.00;101675.72;4986198;28;20064;-44
2022/12/07 00:36:46;;;;;;;8.75;5.20;;;;;;;5.17;100.00;101674.91;4998986;28;20041;-47
2022/12/07 00:39:13;;;;;;;11.98;5.22;;;;;;;5.15;100.00;101671.59;5012174;28;20515;-46
2022/12/07 00:41:41;;;;;;;9.25;5.28;;;;;;;5.15;100.00;101670.72;5011412;28;20381;-47
2022/12/07 00:44:09;;;;;;;8.77;5.38;;;;;;;5.15;100.00;101676.97;4986774;28;20113;-45
2022/12/07 00:46:37;;;;;;;10.18;5.25;;;;;;;5.15;100.00;101673.44;4990165;28;20500;-44
2022/12/07 00:49:04;;;;;;;7.22;4.63;;;;;;;5.15;100.00;101678.84;5015092;28;20042;-46
2022/12/07 00:51:32;;;;;;;9.77;5.03;;;;;;;5.15;100.00;101670.72;5001290;28;20038;-46
2022/12/07 00:54:00;;;;;;;10.52;5.30;;;;;;;5.15;100.00;101674.28;5006987;28;20408;-47
2022/12/07 00:56:28;;;;;;;9.43;5.05;;;;;;;5.15;100.00;101676.97;4997233;28;20069;-44
2022/12/07 00:59:01;;;;;;;9.25;5.30;;;;;;;5.13;100.00;101669.06;5006520;28;20043;-47
2022/12/07 01:01:32;;;;;;;9.52;5.03;;;;;;;5.13;100.00;101669.06;4999323;28;20042;-47
2022/12/07 01:04:03;;;;;;;11.10;6.00;;;;;;;5.15;100.00;101668.03;5007876;28;20042;-46
2022/12/07 01:06:31;;;;;;;9.93;5.82;;;;;;;5.12;100.00;101664.72;5011075;28;20046;-47
2022/12/07 01:08:59;;;;;;;8.52;5.03;;;;;;;5.11;100.00;101659.53;5014589;28;20038;-45
2022/12/07 01:11:29;;;;;;;11.02;5.18;;;;;;;5.08;100.00;101666.19;4989120;28;20046;-46
2022/12/07 01:13:58;;;;;;;9.30;5.30;;;;;;;5.06;100.00;101668.25;4964218;28;20042;-49
2022/12/07 01:16:27;;;;;;;10.18;5.30;;;;;;;5.06;100.00;101665.56;4995006;28;20042;-48
2022/12/07 01:18:57;;;;;;;11.13;5.90;;;;;;;5.05;100.00;101671.16;5003048;28;20073;-47
2022/12/07 01:21:35;;;;;;;10.02;5.25;;;;;;;5.05;100.00;101669.31;4993430;28;20077;-47
2022/12/07 01:24:05;;;;;;;9.60;5.07;;;;;;;5.03;100.00;101671.38;5013332;28;20415;-45
2022/12/07 01:26:33;;;;;;;9.43;5.45;;;;;;;4.99;100.00;101680.94;4989801;28;20419;-48
2022/12/07 01:29:01;;;;;;;9.32;5.35;;;;;;;4.98;100.00;101682.00;5010316;28;20046;-45
2022/12/07 01:31:29;;;;;;;9.88;5.07;;;;;;;4.96;100.00;101675.97;4994409;28;20117;-44
2022/12/07 01:33:58;;;;;;;10.13;5.53;;;;;;;4.95;100.00;101674.28;4979426;28;20050;-45
2022/12/07 01:36:27;;;;;;;9.45;5.28;;;;;;;4.94;100.00;101672.66;4984958;28;20042;-45
2022/12/07 01:39:00;;;;;;;8.77;5.30;;;;;;;4.96;100.00;101664.34;5009779;28;20045;-45
2022/12/07 01:41:30;;;;;;;9.20;5.20;;;;;;;4.97;100.00;101672.22;4984972;28;20050;-45
2022/12/07 01:44:23;;;;;;;9.18;5.45;;;;;;;4.93;100.00;101668.28;4995747;28;20051;-47
2022/12/07 01:46:58;;;;;;;9.40;5.20;;;;;;;4.90;100.00;101666.81;4992761;28;20038;-46
2022/12/07 01:49:35;;;;;;;10.63;5.22;;;;;;;4.89;100.00;101659.78;5005973;28;20045;-46
2022/12/07 01:52:24;;;;;;;11.32;5.40;;;;;;;4.87;100.00;101666.41;5013944;28;20054;-49
2022/12/07 01:54:57;;;;;;;9.60;5.32;;;;;;;4.87;100.00;101663.72;4982004;28;20066;-47
2022/12/07 01:57:25;;;;;;;9.02;5.47;;;;;;;4.86;100.00;101667.47;4992092;28;20054;-45
2022/12/07 01:59:54;;;;;;;13.73;5.20;;;;;;;4.83;100.00;101673.28;4978670;28;20067;-45
2022/12/07 02:02:34;;;;;;;8.63;4.95;;;;;;;4.85;100.00;101673.91;4979611;28;20500;-44
2022/12/07 02:05:04;;;;;;;10.65;5.35;;;;;;;4.83;100.00;101673.28;4989187;28;20564;-48
2022/12/07 02:07:34;;;;;;;10.05;5.00;;;;;;;4.82;100.00;101667.03;5012905;28;20053;-46
2022/12/07 02:10:20;;;;;;;8.73;5.20;;;;;;;4.83;100.00;101657.88;4972653;28;20051;-46
2022/12/07 02:13:04;;;;;;;8.63;4.82;;;;;;;4.84;100.00;101659.56;4990635;28;20096;-46
2022/12/07 02:15:50;;;;;;;10.55;5.05;;;;;;;4.85;100.00;101663.09;4987419;28;20038;-46
2022/12/07 02:18:33;;;;;;;9.13;4.70;;;;;;;4.83;100.00;101655.19;5013342;28;20053;-47
2022/12/07 02:21:08;;;;;;;8.20;5.07;;;;;;;4.83;100.00;101657.88;4957874;28;20088;-47
2022/12/07 02:24:14;;;;;;;10.05;5.20;;;;;;;4.84;100.00;101658.75;4973426;28;20054;-47
2022/12/07 02:27:06;;;;;;;7.95;4.70;;;;;;;4.84;100.00;101661.44;4982695;28;20054;-47
2022/12/07 02:29:45;;;;;;;8.95;4.65;;;;;;;4.80;100.00;101669.13;4976532;28;20050;-47
2022/12/07 02:32:22;;;;;;;10.90;5.30;;;;;;;4.78;100.00;101667.66;5002503;28;20463;-44
2022/12/07 02:34:50;;;;;;;;;;;;;;;4.80;100.00;101662.91;5001343;28;20519;-45
2022/12/07 02:37:53;;;;;;;9.45;4.80;;;;;;;4.82;100.00;101661.66;4975522;28;19925;-46
2022/12/07 02:40:35;;;;;;;9.00;4.72;;;;;;;4.83;100.00;101659.78;4996176;28;20523;-47
2022/12/07 02:43:08;;;;;;;9.63;5.05;;;;;;;4.83;100.00;101654.38;4979490;28;20161;-47
2022/12/07 02:45:39;;;;;;;10.60;5.30;;;;;;;4.83;100.00;101651.66;5008720;28;20057;-47
2022/12/07 02:48:08;;;;;;;8.43;4.72;;;;;;;4.78;100.00;101648.78;4975240;28;20046;-47
2022/12/07 02:50:36;;;;;;;12.73;5.10;;;;;;;4.73;100.00;101651.28;4987073;28;20072;-47
2022/12/07 02:53:03;;;;;;;10.45;4.47;;;;;;;4.73;100.00;101646.69;4985344;28;20523;-45
2022/12/07 02:55:37;;;;;;;11.13;5.03;;;;;;;4.74;100.00;101659.16;5013152;28;20045;-47
2022/12/07 02:58:48;;;;;;;7.85;4.45;;;;;;;4.74;100.00;101652.91;4990164;28;20042;-47
2022/12/07 03:01:35;;;;;;;10.82;4.72;;;;;;;4.73;100.00;101657.50;4930584;29;20047;-48
2022/12/07 03:04:20;;;;;;;9.32;4.95;;;;;;;4.73;100.00;101664.78;4986999;28;20045;-49
2022/12/07 03:07:15;;;;;;;8.15;4.68;;;;;;;4.72;100.00;101657.72;5012470;28;20042;-48
2022/12/07 03:10:11;;;;;;;7.85;4.30;;;;;;;4.73;100.00;101662.06;4991881;28;20053;-47
2022/12/07 03:12:50;;;;;;;8.32;4.57;;;;;;;4.73;100.00;101671.00;4997215;28;20504;-46
2022/12/07 03:15:41;;;;;;;10.65;4.80;;;;;;;4.73;100.00;101668.28;4966711;28;20101;-49
2022/12/07 03:18:11;;;;;;;10.27;4.78;;;;;;;4.73;100.00;101672.88;4999944;28;20096;-49
2022/12/07 03:20:40;;;;;;;7.05;3.97;;;;;;;4.71;100.00;101670.38;4963608;28;20104;-47
2022/12/07 03:23:09;;;;;;;8.07;4.47;;;;;;;4.70;100.00;101663.31;4999028;28;20034;-49
2022/12/07 03:25:42;;;;;;;9.05;4.60;;;;;;;4.70;100.00;101660.63;5010630;28;20034;-48
2022/12/07 03:28:10;;;;;;;10.05;4.47;;;;;;;4.69;100.00;101662.50;4990208;28;20045;-46
2022/12/07 03:30:45;;;;;;;9.52;4.50;;;;;;;4.69;100.00;101658.97;4981653;28;20088;-48
2022/12/07 03:33:29;;;;;;;7.78;4.22;;;;;;;4.69;100.00;101657.09;5016050;28;20042;-45
2022/12/07 03:36:30;;;;;;;9.73;4.40;;;;;;;4.71;100.00;101648.78;4993437;28;20046;-48
2022/12/07 03:39:08;;;;;;;7.93;3.97;;;;;;;4.75;100.00;101650.03;4996626;28;20473;-49
2022/12/07 03:41:37;;;;;;;16.90;4.95;;;;;;;4.78;100.00;101646.06;5007156;28;20071;-45
2022/12/07 03:44:12;;;;;;;7.43;3.78;;;;;;;4.81;100.00;101641.09;4999674;28;20050;-43
2022/12/07 03:47:02;;;;;;;8.75;4.28;;;;;;;4.83;100.00;101646.28;4998526;28;20046;-50
2022/12/07 03:49:41;;;;;;;8.60;4.22;;;;;;;4.82;100.00;101641.91;4980657;28;20100;-48
2022/12/07 03:52:32;;;;;;;11.48;4.30;;;;;;;4.82;100.00;101650.84;5015885;28;20065;-48
2022/12/07 03:55:29;;;;;;;8.15;4.00;;;;;;;4.81;100.00;101648.34;4973910;28;20041;-47
2022/12/07 03:58:00;;;;;;;7.13;3.70;;;;;;;4.78;100.00;101648.78;5005219;28;20571;-46
2022/12/07 04:00:27;;;;;;;9.18;3.95;;;;;;;4.79;100.00;101651.28;4994593;28;20516;-45
2022/12/07 04:02:56;;;;;;;8.02;3.97;;;;;;;4.78;100.00;101643.38;4994866;28;20042;-48
2022/12/07 04:05:24;;;;;;;9.15;3.95;;;;;;;4.78;100.00;101643.38;5012962;28;20050;-46
2022/12/07 04:07:51;;;;;;;7.38;3.75;;;;;;;4.76;100.00;101637.34;4996220;28;20046;-46
2022/12/07 04:10:19;;;;;;;9.43;3.90;;;;;;;4.74;100.00;101642.97;4998253;28;20415;-46
2022/12/07 04:12:47;;;;;;;8.02;3.63;;;;;;;4.76;100.00;101650.84;4995941;28;20046;-47
2022/12/07 04:15:14;;;;;;;9.18;3.72;;;;;;;4.76;100.00;101645.44;4984259;28;20440;-45
2022/12/07 04:17:43;;;;;;;8.98;3.58;;;;;;;4.77;100.00;101647.13;5003612;28;20042;-46
2022/12/07 04:20:11;;;;;;;8.65;3.97;;;;;;;4.79;100.00;101650.44;5012287;28;20042;-48
2022/12/07 04:22:39;;;;;;;9.63;3.72;;;;;;;4.81;100.00;101648.34;4995791;28;20444;-49
2022/12/07 04:25:07;;;;;;;8.52;3.75;;;;;;;4.80;100.00;101644.81;4975479;28;20489;-44
2022/12/07 04:27:34;;;;;;;8.85;3.88;;;;;;;4.80;100.00;101649.41;5003762;28;20412;-46
2022/12/07 04:30:02;;;;;;;8.25;3.30;;;;;;;4.78;100.00;101649.59;5011912;28;20412;-47
2022/12/07 04:32:30;;;;;;;10.05;3.55;;;;;;;4.77;100.00;101655.22;5015237;28;20041;-47
2022/12/07 04:34:58;;;;;;;7.57;3.50;;;;;;;4.77;100.00;101649.81;5015050;28;20045;-46
2022/12/07 04:37:26;;;;;;;10.25;3.78;;;;;;;4.79;100.00;101645.03;5008759;28;20047;-47
2022/12/07 04:39:53;;;;;;;8.75;3.40;;;;;;;4.80;100.00;101641.28;4996812;28;20039;-46
2022/12/07 04:42:21;;;;;;;9.73;3.72;;;;;;;4.79;100.00;101639.66;5005036;28;20038;-47
2022/12/07 04:44:48;;;;;;;10.77;3.70;;;;;;;4.79;100.00;101639.66;5014681;28;20045;-45
2022/12/07 04:47:16;;;;;;;7.90;3.60;;;;;;;4.79;100.00;101636.94;5005607;28;20043;-48
2022/12/07 04:49:44;;;;;;;8.02;3.30;;;;;;;4.78;100.00;101633.41;5009248;28;20046;-46
2022/12/07 04:52:11;;;;;;;8.85;3.60;;;;;;;4.77;100.00;101629.03;4999143;28;20104;-46
2022/12/07 04:54:39;;;;;;;9.10;3.47;;;;;;;4.76;100.00;101631.94;5007665;28;20068;-45
2022/12/07 04:57:07;;;;;;;8.85;3.30;;;;;;;4.75;100.00;101628.41;5011332;28;20039;-48
2022/12/07 04:59:34;;;;;;;8.40;3.45;;;;;;;4.75;100.00;101627.59;5014463;28;20049;-47
2022/12/07 05:02:07;;;;;;;9.40;3.40;;;;;;;4.75;100.00;101627.59;5013368;28;20128;-46
2022/12/07 05:04:35;;;;;;;8.80;3.50;;;;;;;4.75;100.00;101622.19;4984634;28;20042;-48
2022/12/07 05:07:02;;;;;;;7.65;3.35;;;;;;;4.76;100.00;101623.84;4999503;28;20038;-47
2022/12/07 05:09:30;;;;;;;9.43;3.28;;;;;;;4.77;100.00;101630.94;5000859;28;20105;-46
2022/12/07 05:11:57;;;;;;;7.53;3.42;;;;;;;4.77;100.00;101631.75;5014268;28;20045;-45
2022/12/07 05:14:25;;;;;;;8.20;3.33;;;;;;;4.74;100.00;101624.06;5015301;28;20089;-46
2022/12/07 05:16:53;;;;;;;9.10;3.75;;;;;;;4.68;100.00;101633.81;4990093;28;20046;-48
2022/12/07 05:19:21;;;;;;;7.65;3.10;;;;;;;4.67;100.00;101629.47;5005882;28;20038;-45
2022/12/07 05:21:49;;;;;;;6.20;3.00;;;;;;;4.65;100.00;101628.84;5001108;28;20046;-45
2022/12/07 05:24:17;;;;;;;6.65;3.38;;;;;;;4.68;100.00;101628.41;5014252;28;20570;-44
2022/12/07 05:26:45;;;;;;;5.63;2.90;;;;;;;4.67;100.00;101631.34;5002870;28;20394;-43
2022/12/07 05:29:15;;;;;;;7.60;3.20;;;;;;;4.67;100.00;101626.78;4985192;28;20047;-43
2022/12/07 05:31:43;;;;;;;10.20;3.50;;;;;;;4.66;100.00;101633.19;4985407;28;20035;-45
2022/12/07 05:34:11;;;;;;;11.30;3.72;;;;;;;4.65;100.00;101628.84;5013837;28;20049;-50
2022/12/07 05:36:38;;;;;;;8.88;3.55;;;;;;;4.64;100.00;101632.59;4992025;28;20505;-48
2022/12/07 05:39:07;;;;;;;9.32;3.40;;;;;;;4.62;100.00;101631.97;4980598;28;20034;-44
2022/12/07 05:44:21;;;;;;;8.52;3.65;;;;;;;4.58;100.00;101627.19;4978852;28;20060;-44
2022/12/07 05:46:48;;;;;;;7.38;3.47;;;;;;;4.49;100.00;101627.38;4996794;28;20057;-44
2022/12/07 05:49:16;;;;;;;8.65;3.38;;;;;;;4.46;100.00;101624.28;4980152;28;20046;-46
2022/12/07 05:51:44;;;;;;;8.93;3.35;;;;;;;4.42;100.00;101626.56;5001291;28;20112;-45
2022/12/07 05:54:11;;;;;;;11.85;3.85;;;;;;;4.41;100.00;101618.69;5019989;28;20037;-46
2022/12/07 05:56:39;;;;;;;11.82;3.70;;;;;;;4.41;100.00;101621.38;5005156;28;20049;-46
2022/12/07 05:59:22;;;;;;;9.50;3.60;;;;;;;4.46;100.00;101610.81;5015574;28;20050;-43
2022/12/07 06:01:54;;;;;;;9.93;3.42;;;;;;;4.50;100.00;101617.44;4997314;28;20041;-44
2022/12/07 06:04:24;;;;;;;9.07;3.47;;;;;;;4.45;100.00;101612.69;5004873;28;20500;-45
2022/12/07 06:06:52;;;;;;;7.88;3.20;;;;;;;4.48;100.00;101619.53;5002820;28;20030;-46
2022/12/07 06:09:21;;;;;;;9.80;2.97;;;;;;;4.49;100.00;101622.00;4998855;28;20381;-51
2022/12/07 06:14:34;;;;;;;10.40;3.83;;;;;;;4.50;100.00;101612.06;4981796;28;20442;-46
2022/12/07 06:17:02;;;;;;;7.18;3.08;;;;;;;4.49;100.00;101608.50;4989893;28;20034;-47
2022/12/07 06:19:30;;;;;;;10.57;3.40;;;;;;;4.48;100.00;101617.66;5005913;28;20137;-44
2022/12/07 06:21:58;;;;;;;7.97;3.47;;;;;;;4.48;100.00;101614.13;4975338;28;20445;-50
2022/12/07 06:24:26;;;;;;;8.67;3.57;;;;;;;4.49;100.00;101621.16;4297901;28;10000639;-47
2022/12/07 06:26:53;;;;;;;8.63;3.67;;;;;;;4.50;100.00;101625.53;4987816;28;20297;-47
2022/12/07 06:29:21;;;;;;;11.52;3.60;;;;;;;4.49;100.00;101623.88;5001763;28;20042;-47
2022/12/07 06:31:49;;;;;;;10.52;3.90;;;;;;;4.51;100.00;101619.09;5009665;28;20049;-48
2022/12/07 06:34:19;;;;;;;8.68;3.55;;;;;;;4.51;100.00;101619.09;5009601;28;20041;-49
2022/12/07 06:36:54;;;;;;;10.93;3.60;;;;;;;4.50;100.00;101630.94;4979467;28;20509;-48
2022/12/07 06:39:25;;;;;;;8.37;3.50;;;;;;;4.53;100.00;101629.69;4999394;28;20100;-45
2022/12/07 06:41:53;;;;;;;10.35;3.22;;;;;;;4.48;100.00;101625.75;4976149;28;20092;-46
2022/12/07 06:44:22;;;;;;;8.30;3.35;;;;;;;4.45;100.00;101625.34;5009626;28;20511;-46
2022/12/07 06:46:50;;;;;;;9.23;3.95;;;;;;;4.42;100.00;101623.84;4979762;28;20050;-48
2022/12/07 06:49:17;;;;;;;9.57;3.40;;;;;;;4.40;100.00;101620.56;4965420;28;20051;-47
2022/12/07 06:51:45;;;;;;;9.88;3.20;;;;;;;4.40;100.00;101627.81;4977946;28;20046;-46
2022/12/07 06:54:14;;;;;;;8.50;3.15;;;;;;;4.41;100.00;101627.59;4992446;28;20037;-45
2022/12/07 06:56:42;;;;;;;8.23;3.38;;;;;;;4.42;100.00;101618.47;5009617;28;20049;-46
2022/12/07 06:59:09;;;;;;;6.55;3.40;;;;;;;4.44;100.00;101623.66;4969732;28;20448;-46
2022/12/07 07:01:37;;;;;;;7.45;3.08;;;;;;;4.41;100.00;101626.78;4993504;28;20045;-47
2022/12/07 07:04:05;;;;;;;8.88;3.47;;;;;;;4.41;100.00;101627.59;5012998;28;20048;-46
2022/12/07 07:06:33;;;;;;;7.85;3.58;;;;;;;4.42;100.00;101631.13;5006073;28;20049;-46
2022/12/07 07:09:00;;;;;;;8.13;3.22;;;;;;;4.40;100.00;101625.97;5009104;28;20448;-49
2022/12/07 07:11:28;;;;;;;15.15;3.85;;;;;;;4.42;100.00;101626.56;5003050;28;20045;-46
2022/12/07 07:13:58;;;;;;;8.00;3.60;;;;;;;4.43;100.00;101624.72;5013105;28;20053;-46
2022/12/07 07:16:26;;;;;;;10.02;3.50;;;;;;;4.44;100.00;101626.38;5000269;28;20572;-46
2022/12/07 07:18:53;;;;;;;8.75;3.53;;;;;;;4.41;100.00;101630.31;5013506;28;20064;-44
2022/12/07 07:21:21;;;;;;;9.65;3.60;;;;;;;4.38;100.00;101633.44;5007301;28;20076;-47
2022/12/07 07:23:49;;;;;;;9.38;3.70;;;;;;;4.36;100.00;101627.41;5012713;28;20508;-46
2022/12/07 07:26:16;;;;;;;9.55;3.65;;;;;;;4.36;100.00;101626.56;4997431;28;20042;-48
2022/12/07 07:28:49;;;;;;;8.75;3.80;;;;;;;4.36;100.00;101635.50;4984407;28;20042;-48
2022/12/07 07:31:17;;;;;;;11.07;3.67;;;;;;;4.36;100.00;101629.28;4967878;28;20042;-52
2022/12/07 07:33:46;;;;;;;10.73;3.80;;;;;;;4.37;100.00;101639.03;5006312;28;20448;-48
2022/12/07 07:36:14;;;;;;;9.48;4.18;;;;;;;4.35;100.00;101639.22;5001814;28;20042;-49
2022/12/07 07:38:41;;;;;;;9.35;3.60;;;;;;;4.35;100.00;101639.22;4998884;28;20099;-47
2022/12/07 07:41:09;;;;;;;10.70;3.47;;;;;;;4.34;100.00;101640.25;4990312;28;20039;-47
2022/12/07 07:43:37;;;;;;;11.63;3.80;;;;;;;4.34;100.00;101634.03;5015333;28;20034;-47
2022/12/07 07:46:04;;;;;;;11.10;3.40;;;;;;;4.37;100.00;101636.31;5009388;28;20100;-46
2022/12/07 07:48:32;;;;;;;9.27;3.53;;;;;;;4.39;100.00;101628.84;5016092;28;20160;-47
2022/12/07 07:51:00;;;;;;;12.68;3.72;;;;;;;4.42;100.00;101641.91;5013043;28;20521;-47
2022/12/07 07:53:27;;;;;;;11.10;3.92;;;;;;;4.42;100.00;101636.53;4993513;28;20050;-47
2022/12/07 07:55:56;;;;;;;8.85;4.00;;;;;;;4.45;100.00;101644.22;4994801;28;20046;-46
2022/12/07 07:58:23;;;;;;;11.90;4.22;;;;;;;4.45;100.00;101641.53;4995982;28;20097;-47
2022/12/07 08:00:51;;;;;;;7.55;3.80;;;;;;;4.45;100.00;101638.84;4994892;28;20038;-46
2022/12/07 08:03:18;;;;;;;11.82;4.57;;;;;;;4.42;100.00;101641.91;4973648;28;20058;-44
2022/12/07 08:05:46;;;;;;;9.15;4.03;;;;;;;4.40;100.00;101642.16;4970893;28;20050;-48
2022/12/07 08:08:14;;;;;;;8.80;3.83;;;;;;;4.41;100.00;101637.56;4970617;28;20043;-49
2022/12/07 08:10:41;;;;;;;9.32;3.83;;;;;;;4.41;100.00;101648.38;4981990;28;20038;-47
2022/12/07 08:13:13;;;;;;;11.25;3.90;;;;;;;4.43;100.00;101643.59;4993914;28;20505;-47
2022/12/07 08:15:44;;;;;;;9.60;3.78;;;;;;;4.45;100.00;101644.22;4995627;28;20066;-47
2022/12/07 08:18:13;;;;;;;11.52;4.30;;;;;;;4.48;100.00;101643.81;4980505;28;20616;-47
2022/12/07 08:20:41;;;;;;;8.50;3.65;;;;;;;4.48;100.00;101638.41;4989587;28;20042;-47
2022/12/07 08:23:10;;;;;;;10.75;3.67;;;;;;;4.49;100.00;101645.44;4987699;28;20046;-45
2022/12/07 08:25:38;;;;;;;10.65;4.20;;;;;;;4.44;100.00;101637.16;4981481;28;20053;-48
2022/12/07 08:28:06;;;;;;;11.23;4.40;;;;;;;4.39;100.00;101647.75;4995467;28;20045;-44
2022/12/07 08:30:33;;;;;;;10.68;4.25;;;;;;;4.34;100.00;101642.13;4977967;28;20066;-47
2022/12/07 08:33:01;;;;;;;12.30;4.47;;;;;;;4.34;100.00;101650.22;4976888;28;20038;-44
2022/12/07 08:35:29;;;;;;;13.57;4.72;;;;;;;4.36;100.00;101653.56;4994212;28;20042;-46
2022/12/07 08:37:57;;;;;;;12.80;4.63;;;;;;;4.33;100.00;101657.50;4995304;28;20053;-45
2022/12/07 08:40:25;;;;;;;10.02;4.45;;;;;;;4.35;100.00;101659.97;4995506;28;20093;-48
2022/12/07 08:42:53;;;;;;;12.00;4.38;;;;;;;4.37;100.00;101657.91;4998215;28;20120;-47
2022/12/07 08:45:22;;;;;;;12.30;4.57;;;;;;;4.38;100.00;101656.88;4998088;28;20046;-50
2022/12/07 08:48:08;;;;;;;9.30;4.28;;;;;;;4.41;100.00;101659.16;5000654;28;20046;-46
2022/12/07 08:50:37;;;;;;;12.95;4.35;;;;;;;4.40;100.00;101662.88;4997454;28;20050;-46
2022/12/07 08:53:06;;;;;;;13.25;4.68;;;;;;;4.36;100.00;101651.69;5014311;28;20057;-47
2022/12/07 08:55:34;;;;;;;13.88;4.55;;;;;;;4.43;100.00;101651.69;4999160;28;20113;-47
2022/12/07 08:58:03;;;;;;;9.05;3.90;;;;;;;4.47;100.00;101652.91;4978438;28;20050;-50
2022/12/07 09:00:30;;;;;;;9.40;3.80;;;;;;;4.52;100.00;101650.44;4997415;28;20053;-47
2022/12/07 09:02:59;;;;;;;11.00;3.80;;;;;;;4.55;100.00;101654.59;4987209;28;20073;-46
2022/12/07 09:05:26;;;;;;;10.00;3.80;;;;;;;4.55;100.00;101652.72;4993387;28;20081;-48
2022/12/07 09:07:57;;;;;;;10.05;3.83;;;;;;;4.59;100.00;101650.44;4996602;28;20049;-49
2022/12/07 09:10:25;;;;;;;10.50;3.90;;;;;;;4.60;100.00;101658.34;4997032;28;20453;-46
2022/12/07 09:12:53;;;;;;;11.32;3.58;;;;;;;4.63;100.00;101655.22;5003652;28;20085;-47
2022/12/07 09:15:21;;;;;;;13.23;3.85;;;;;;;4.64;100.00;101653.34;4977513;28;20116;-47
2022/12/07 09:17:48;;;;;;;10.05;3.50;;;;;;;4.67;100.00;101658.34;4990033;28;20518;-47
2022/12/07 09:20:16;;;;;;;10.35;3.95;;;;;;;4.67;100.00;101648.38;5000787;28;20409;-48
2022/12/07 09:22:44;;;;;;;11.75;3.88;;;;;;;4.67;100.00;101655.66;4987577;28;20038;-46
2022/12/07 09:25:11;;;;;;;12.50;3.60;;;;;;;4.61;100.00;101654.59;4990279;28;20054;-47
2022/12/07 09:27:39;;;;;;;11.45;3.80;;;;;;;4.57;100.00;101649.81;4990443;28;20489;-45
2022/12/07 09:30:07;;;;;;;11.98;3.83;;;;;;;4.58;100.00;101659.59;5009620;28;20041;-49
2022/12/07 09:32:35;;;;;;;10.65;4.05;;;;;;;4.60;100.00;101654.81;5013915;28;20046;-47
2022/12/07 09:35:03;;;;;;;16.65;4.85;;;;;;;4.64;100.00;101661.44;5005082;28;20113;-49
2022/12/07 09:37:34;;;;;;;10.57;4.18;;;;;;;4.68;100.00;101666.22;4996805;28;20141;-48
2022/12/07 09:40:04;;;;;;;16.15;5.50;;;;;;;4.66;100.00;101653.97;4996427;28;20069;-48
2022/12/07 09:42:39;;;;;;;13.60;4.93;;;;;;;4.68;100.00;101660.81;5008893;28;20050;-45
2022/12/07 09:45:22;;;;;;;12.15;4.38;;;;;;;4.72;100.00;101661.25;4977135;28;20137;-50
2022/12/07 09:47:50;;;;;;;10.95;3.72;;;;;;;4.76;100.00;101657.06;4971833;28;20042;-48
2022/12/07 09:50:24;;;;;;;7.50;3.30;;;;;;;4.80;100.00;101660.19;4980786;28;20045;-47
2022/12/07 09:52:54;;;;;;;10.65;4.03;;;;;;;4.83;100.00;101655.19;4958665;28;20424;-47
2022/12/07 09:55:31;;;;;;;12.55;4.03;;;;;;;4.83;100.00;101651.66;4997221;28;20038;-44
2022/12/07 09:57:59;;;;;;;13.55;4.20;;;;;;;4.81;100.00;101657.31;4989457;28;20469;-48
2022/12/07 10:00:28;;;;;;;8.73;3.38;;;;;;;4.80;100.00;101654.78;5013602;28;20407;-48
2022/12/07 10:02:57;;;;;;;10.38;3.85;;;;;;;4.80;100.00;101647.53;5005390;28;20042;-46
2022/12/07 10:05:38;;;;;;;9.70;3.47;;;;;;;4.80;100.00;101649.41;4996665;28;20068;-45
2022/12/07 10:08:07;;;;;;;11.38;3.75;;;;;;;4.84;100.00;101658.75;4977040;28;20050;-49
2022/12/07 10:10:39;;;;;;;10.30;3.63;;;;;;;4.85;100.00;101655.00;4988627;28;20046;-48
2022/12/07 10:13:09;;;;;;;14.02;4.57;;;;;;;4.86;100.00;101652.09;4967885;28;20035;-48
2022/12/07 10:15:57;;;;;;;12.38;4.07;;;;;;;4.95;100.00;101641.88;4988141;28;20491;-46
2022/12/07 10:18:44;;;;;;;;;;;;;;;4.99;100.00;101639.59;5013782;28;20042;-46
2022/12/07 10:21:16;;;;;;;14.13;6.18;;;;;;;5.05;100.00;101646.84;4984966;28;19925;-47
2022/12/07 10:24:05;;;;;;;19.23;9.18;;;;;;;5.17;100.00;101634.38;4982789;28;20049;-49
2022/12/07 10:26:35;;;;;;;10.02;3.60;;;;;;;5.20;100.00;101636.66;5007381;28;20077;-47
2022/12/07 10:29:29;;;;;;;13.55;3.58;;;;;;;5.16;100.00;101634.59;4995819;28;20033;-46
2022/12/07 10:32:03;;;;;;;9.00;3.08;;;;;;;5.15;100.00;101624.81;5010553;28;20474;-46
2022/12/07 10:34:34;;;;;;;12.90;4.65;;;;;;;5.16;100.00;101623.78;4995588;28;20050;-48
2022/12/07 10:37:19;;;;;;;12.30;3.55;;;;;;;5.18;100.00;101616.31;4992756;28;20105;-50
2022/12/07 10:39:52;;;;;;;9.88;3.67;;;;;;;5.22;100.00;101615.66;4987059;28;20409;-51
2022/12/07 10:42:28;;;;;;;12.15;3.97;;;;;;;5.30;100.00;101614.59;4989389;28;20497;-48
2022/12/07 10:45:16;;;;;;;8.50;3.35;;;;;;;5.32;100.00;101618.75;5000531;28;20038;-49
2022/12/07 10:48:08;;;;;;;9.50;3.28;;;;;;;5.36;100.00;101613.72;4963214;28;20069;-49
2022/12/07 10:51:06;;;;;;;17.23;3.97;;;;;;;5.37;100.00;101601.88;4999152;28;20042;-55
2022/12/07 10:53:51;;;;;;;9.02;3.10;;;;;;;5.33;100.00;101606.88;4992024;28;20078;-46
2022/12/07 10:56:47;;;;;;;13.10;4.78;;;;;;;5.32;100.00;101601.69;4975326;28;20051;-47
2022/12/07 11:00:08;;;;;;;11.43;3.47;;;;;;;5.31;100.00;101600.03;4979169;28;20497;-48
2022/12/07 11:03:02;;;;;;;9.05;3.15;;;;;;;5.32;100.00;101597.13;4912956;29;20056;-47
2022/12/07 11:06:06;;;;;;;7.57;3.53;;;;;;;5.33;100.00;101590.66;4993105;28;20043;-47
2022/12/07 11:09:06;;;;;;;10.38;3.47;;;;;;;5.32;100.00;101588.19;4991721;28;20043;-48
2022/12/07 11:11:53;;;;;;;8.63;3.15;;;;;;;5.31;100.00;101583.81;4949565;28;20050;-49
2022/12/07 11:14:39;;;;;;;7.15;2.83;;;;;;;5.31;100.00;101583.81;4993194;28;20477;-48
2022/12/07 11:17:35;;;;;;;10.77;3.10;;;;;;;5.31;100.00;101583.81;4996485;28;20038;-44
2022/12/07 11:20:14;;;;;;;9.65;3.25;;;;;;;5.37;100.00;101572.16;4993837;28;20031;-47
2022/12/07 11:22:53;;;;;;;14.85;3.60;;;;;;;5.38;100.00;101578.38;4983168;28;20038;-50
2022/12/07 11:25:39;;;;;;;9.05;2.72;;;;;;;5.37;100.00;101571.34;4995825;28;20037;-49
2022/12/07 11:28:22;;;;;;;9.18;3.30;;;;;;;5.34;100.00;101567.19;4963637;28;20113;-48
2022/12/07 11:31:25;;;;;;;9.95;3.83;;;;;;;5.34;100.00;101565.31;4991358;28;20046;-50
2022/12/07 11:34:34;;;;;;;9.30;3.33;;;;;;;5.36;100.00;101559.69;4941524;28;20416;-47
2022/12/07 11:37:04;;;;;;;11.07;3.60;;;;;;;5.37;100.00;101560.53;4975217;28;20050;-49
2022/12/07 11:39:52;;;;;;;13.88;3.58;;;;;;;5.36;100.00;101554.28;4973210;28;20393;-47
2022/12/07 11:42:26;;;;;;;11.27;3.72;;;;;;;5.40;100.00;101550.09;4975493;28;20034;-50
2022/12/07 11:44:59;;;;;;;11.90;3.65;;;;;;;5.40;100.00;101550.09;4973622;28;20039;-46
2022/12/07 11:47:52;;;;;;;12.45;3.65;;;;;;;5.40;100.00;101542.00;4975865;28;20056;-48
2022/12/07 11:50:38;;;;;;;10.23;3.30;;;;;;;5.41;100.00;101538.25;4962776;28;20047;-50
2022/12/07 11:53:17;;;;;;;8.00;3.00;;;;;;;5.43;100.00;101541.56;4995477;28;20476;-49
2022/12/07 11:56:09;;;;;;;9.10;3.15;;;;;;;5.42;100.00;101542.63;4996218;28;20555;-50